createdAt,value
2019-05-11T00:01:42.906Z,90.01
2019-05-11T00:04:15.613Z,90.18
2019-05-11T00:06:47.274Z,90.42
2019-05-11T00:09:19.116Z,90.67
2019-05-11T00:11:51.200Z,90.78
2019-05-11T00:14:23.268Z,90.80
2019-05-11T00:16:54.922Z,90.83
2019-05-11T00:19:26.780Z,90.89
2019-05-11T00:21:58.752Z,91.05
2019-05-11T00:24:30.511Z,91.20
2019-05-11T00:27:02.474Z,91.31
2019-05-11T00:29:34.525Z,91.41
2019-05-11T00:32:06.520Z,91.50
2019-05-11T00:34:39.489Z,91.49
2019-05-11T00:37:11.231Z,91.54
2019-05-11T00:39:43.000Z,91.72
2019-05-11T00:42:14.953Z,91.94
2019-05-11T00:44:47.655Z,92.06
2019-05-11T00:47:19.621Z,92.17
2019-05-11T00:49:51.465Z,92.28
2019-05-11T00:52:23.344Z,92.38
2019-05-11T00:54:55.203Z,92.53
2019-05-11T00:57:27.150Z,92.71
2019-05-11T00:59:59.013Z,92.83
2019-05-11T01:02:30.965Z,92.94
2019-05-11T01:05:02.861Z,93.01
2019-05-11T01:07:34.810Z,93.02
2019-05-11T01:10:21.756Z,93.03
2019-05-11T01:12:41.517Z,93.01
2019-05-11T01:15:13.814Z,93.01
2019-05-11T01:18:04.801Z,93.04
2019-05-11T01:20:36.454Z,93.05
2019-05-11T01:23:08.510Z,93.09
2019-05-11T01:25:40.183Z,93.18
2019-05-11T01:28:12.048Z,93.26
2019-05-11T01:30:43.806Z,93.35
2019-05-11T01:33:15.855Z,93.32
2019-05-11T01:35:50.997Z,93.21
2019-05-11T01:38:20.931Z,93.18
2019-05-11T01:40:58.516Z,93.07
2019-05-11T01:43:26.825Z,93.02
2019-05-11T01:45:58.537Z,93.03
2019-05-11T01:48:30.626Z,93.05
2019-05-11T01:51:02.509Z,93.08
2019-05-11T01:53:35.581Z,93.15
2019-05-11T01:56:07.979Z,93.13
2019-05-11T01:58:40.022Z,93.13
2019-05-11T02:01:12.194Z,93.17
2019-05-11T02:03:44.464Z,93.20
2019-05-11T02:06:16.102Z,93.29
2019-05-11T02:08:47.860Z,93.32
2019-05-11T02:11:19.568Z,93.25
2019-05-11T02:13:51.917Z,93.27
2019-05-11T02:16:23.554Z,93.33
2019-05-11T02:18:55.614Z,93.43
2019-05-11T02:21:27.501Z,93.53
2019-05-11T02:23:59.668Z,93.63
2019-05-11T02:26:31.306Z,93.75
2019-05-11T02:29:03.193Z,93.88
2019-05-11T02:31:34.947Z,94.04
2019-05-11T02:34:06.793Z,94.22
2019-05-11T02:36:39.085Z,94.39
2019-05-11T02:39:11.134Z,94.77
2019-05-11T02:41:43.097Z,94.98
2019-05-11T02:44:15.151Z,95.07
2019-05-11T02:46:47.230Z,95.15
2019-05-11T02:49:19.033Z,95.18
2019-05-11T02:51:51.068Z,95.23
2019-05-11T02:54:22.813Z,95.27
2019-05-11T02:56:54.589Z,95.32
2019-05-11T02:59:29.819Z,95.37
2019-05-11T03:02:00.684Z,95.34
2019-05-11T03:04:32.631Z,95.32
2019-05-11T03:07:04.484Z,95.26
2019-05-11T03:09:36.667Z,95.22
2019-05-11T03:12:08.324Z,95.16
2019-05-11T03:14:40.285Z,95.13
2019-05-11T03:17:19.727Z,95.21
2019-05-11T03:19:51.475Z,95.43
2019-05-11T03:22:24.582Z,95.55
2019-05-11T03:24:56.438Z,95.58
2019-05-11T03:27:28.405Z,95.69
2019-05-11T03:30:01.648Z,95.88
2019-05-11T03:32:34.117Z,95.93
2019-05-11T03:35:06.642Z,95.92
2019-05-11T03:37:38.309Z,95.86
2019-05-11T03:40:10.591Z,95.82
2019-05-11T03:42:42.233Z,95.76
2019-05-11T03:45:14.719Z,95.68
2019-05-11T03:47:46.482Z,95.56
2019-05-11T03:50:18.526Z,95.40
2019-05-11T03:52:50.215Z,95.26
2019-05-11T03:55:22.100Z,95.15
2019-05-11T03:57:54.578Z,95.06
2019-05-11T04:00:26.716Z,94.94
2019-05-11T04:02:58.478Z,94.82
2019-05-11T04:05:30.202Z,94.54
2019-05-11T04:08:03.425Z,94.36
2019-05-11T04:10:35.288Z,94.18
2019-05-11T04:13:07.152Z,94.00
2019-05-11T04:15:38.751Z,93.80
2019-05-11T04:18:10.755Z,93.60
2019-05-11T04:20:42.861Z,93.34
2019-05-11T04:23:14.503Z,93.01
2019-05-11T04:25:46.566Z,92.67
2019-05-11T04:28:18.329Z,92.38
2019-05-11T04:30:50.494Z,92.04
2019-05-11T04:33:22.152Z,91.66
2019-05-11T04:35:53.915Z,91.03
2019-05-11T04:38:25.458Z,89.66
2019-05-11T04:40:57.239Z,88.78
2019-05-11T04:43:29.189Z,88.41
2019-05-11T04:46:01.037Z,88.07
2019-05-11T04:48:33.365Z,87.38
2019-05-11T04:51:05.078Z,86.45
2019-05-11T04:53:37.092Z,85.56
2019-05-11T04:56:09.131Z,83.88
2019-05-11T04:58:41.175Z,83.30
2019-05-11T05:01:12.836Z,82.53
2019-05-11T05:03:47.364Z,80.67
2019-05-11T05:06:23.978Z,79.90
2019-05-11T05:08:58.315Z,78.95
2019-05-11T05:11:30.596Z,78.53
2019-05-11T05:14:02.208Z,77.97
2019-05-11T05:16:33.411Z,75.81
2019-05-11T05:19:08.634Z,72.71
2019-05-11T05:21:41.226Z,72.12
2019-05-11T05:24:13.821Z,71.54
2019-05-11T05:26:45.562Z,71.41
2019-05-11T05:29:19.248Z,70.80
2019-05-11T05:31:51.122Z,69.08
2019-05-11T05:34:25.135Z,68.07
2019-05-11T05:36:56.689Z,67.63
2019-05-11T05:39:29.344Z,67.79
2019-05-11T05:42:02.273Z,67.73
2019-05-11T05:44:38.034Z,68.09
2019-05-11T05:47:10.293Z,67.64
2019-05-11T05:49:42.026Z,66.75
2019-05-11T05:52:13.809Z,65.70
2019-05-11T05:54:45.851Z,65.19
2019-05-11T05:57:17.835Z,65.45
2019-05-11T05:59:49.913Z,63.87
2019-05-11T06:02:21.645Z,64.41
2019-05-11T06:04:54.166Z,64.34
2019-05-11T06:07:26.311Z,63.15
2019-05-11T06:09:58.482Z,61.83
2019-05-11T06:12:30.431Z,61.87
2019-05-11T06:15:02.338Z,61.05
2019-05-11T06:17:34.360Z,60.91
2019-05-11T06:20:08.120Z,59.71
2019-05-11T06:22:40.553Z,59.97
2019-05-11T06:25:12.363Z,59.57
2019-05-11T06:27:44.266Z,59.25
2019-05-11T06:30:17.679Z,59.52
2019-05-11T06:32:49.726Z,58.30
2019-05-11T06:35:22.736Z,58.16
2019-05-11T06:37:54.482Z,58.03
2019-05-11T06:40:45.227Z,58.22
2019-05-11T06:43:17.452Z,57.60
2019-05-11T06:45:49.217Z,57.30
2019-05-11T06:48:22.927Z,57.22
2019-05-11T06:50:55.128Z,54.49
2019-05-11T06:53:26.845Z,55.15
2019-05-11T06:55:58.702Z,55.86
2019-05-11T06:58:30.579Z,56.30
2019-05-11T07:01:02.529Z,56.72
2019-05-11T07:03:35.204Z,56.29
2019-05-11T07:06:07.073Z,56.87
2019-05-11T07:08:39.250Z,55.81
2019-05-11T07:11:10.905Z,55.17
2019-05-11T07:13:42.969Z,52.74
2019-05-11T07:16:15.025Z,51.73
2019-05-11T07:18:46.879Z,51.64
2019-05-11T07:21:18.942Z,51.46
2019-05-11T07:23:50.922Z,51.65
2019-05-11T07:26:22.762Z,52.01
2019-05-11T07:28:54.343Z,52.86
2019-05-11T07:31:26.519Z,51.36
2019-05-11T07:33:59.076Z,51.84
2019-05-11T07:36:31.061Z,51.81
2019-05-11T07:39:02.718Z,50.14
2019-05-11T07:41:35.608Z,49.17
2019-05-11T07:44:09.787Z,48.63
2019-05-11T07:46:40.659Z,46.29
2019-05-11T07:49:12.628Z,47.18
2019-05-11T07:51:44.365Z,47.29
2019-05-11T07:54:18.579Z,47.33
2019-05-11T07:56:49.756Z,45.62
2019-05-11T07:59:21.592Z,45.22
2019-05-11T08:01:54.398Z,46.49
2019-05-11T08:04:28.751Z,45.97
2019-05-11T08:07:00.782Z,45.99
2019-05-11T08:09:32.749Z,46.43
2019-05-11T08:12:04.919Z,46.49
2019-05-11T08:14:55.810Z,47.63
2019-05-11T08:17:10.193Z,46.53
2019-05-11T08:19:43.065Z,47.17
2019-05-11T08:22:14.829Z,47.93
2019-05-11T08:24:48.150Z,47.93
2019-05-11T08:27:19.994Z,48.15
2019-05-11T08:29:52.056Z,48.14
2019-05-11T08:32:23.813Z,48.95
2019-05-11T08:34:57.948Z,48.31
2019-05-11T08:37:30.180Z,48.64
2019-05-11T08:40:03.237Z,48.66
2019-05-11T08:42:34.831Z,48.54
2019-05-11T08:45:19.403Z,48.10
2019-05-11T08:47:40.312Z,47.50
2019-05-11T08:50:15.256Z,47.70
2019-05-11T08:52:47.866Z,48.73
2019-05-11T08:55:19.138Z,49.79
2019-05-11T08:57:52.246Z,49.27
2019-05-11T09:00:24.386Z,49.87
2019-05-11T09:02:58.268Z,49.05
2019-05-11T09:05:29.299Z,48.49
2019-05-11T09:08:01.343Z,48.55
2019-05-11T09:10:36.725Z,48.49
2019-05-11T09:13:08.024Z,49.30
2019-05-11T09:15:40.864Z,48.89
2019-05-11T09:18:12.582Z,49.46
2019-05-11T09:20:44.559Z,49.62
2019-05-11T09:23:30.953Z,50.38
2019-05-11T09:25:49.721Z,50.46
2019-05-11T09:28:21.479Z,51.47
2019-05-11T09:30:53.545Z,50.39
2019-05-11T09:33:25.389Z,51.56
2019-05-11T09:35:58.375Z,52.59
2019-05-11T09:38:30.259Z,52.66
2019-05-11T09:41:02.007Z,51.18
2019-05-11T09:43:33.966Z,52.50
2019-05-11T09:46:08.207Z,51.89
2019-05-11T09:48:39.763Z,54.05
2019-05-11T09:51:11.416Z,54.36
2019-05-11T09:53:43.175Z,53.17
2019-05-11T09:56:15.014Z,53.11
2019-05-11T09:58:48.095Z,53.28
2019-05-11T10:01:20.080Z,53.38
2019-05-11T10:03:52.154Z,53.24
2019-05-11T10:06:24.864Z,53.20
2019-05-11T10:08:57.890Z,51.68
2019-05-11T10:11:29.935Z,53.35
2019-05-11T10:14:02.058Z,53.22
2019-05-11T10:16:34.020Z,54.10
2019-05-11T10:19:08.279Z,54.16
2019-05-11T10:21:39.829Z,55.41
2019-05-11T10:24:11.868Z,54.53
2019-05-11T10:26:43.507Z,55.20
2019-05-11T10:29:15.360Z,55.99
2019-05-11T10:31:48.105Z,55.59
2019-05-11T10:34:20.008Z,56.19
2019-05-11T10:36:51.893Z,56.07
2019-05-11T10:39:23.993Z,56.32
2019-05-11T10:41:58.109Z,54.23
2019-05-11T10:44:29.122Z,54.81
2019-05-11T10:47:01.083Z,55.91
2019-05-11T10:49:33.146Z,56.73
2019-05-11T10:52:04.682Z,56.96
2019-05-11T10:54:39.729Z,56.07
2019-05-11T10:59:40.700Z,54.91
2019-05-11T11:02:12.768Z,54.77
2019-05-11T11:04:44.429Z,54.42
2019-05-11T11:07:19.292Z,54.72
2019-05-11T11:09:49.887Z,54.35
2019-05-11T11:12:21.726Z,54.06
2019-05-11T11:14:53.474Z,53.59
2019-05-11T11:17:25.575Z,53.33
2019-05-11T11:19:58.026Z,53.41
2019-05-11T11:22:39.394Z,53.19
2019-05-11T11:25:03.197Z,54.06
2019-05-11T11:27:37.947Z,54.29
2019-05-11T11:30:09.630Z,55.22
2019-05-11T11:32:41.648Z,55.98
2019-05-11T11:35:14.007Z,56.74
2019-05-11T11:37:47.806Z,57.86
2019-05-11T11:40:20.197Z,59.20
2019-05-11T11:42:51.995Z,60.23
2019-05-11T11:45:24.104Z,61.25
2019-05-11T11:47:57.889Z,62.47
2019-05-11T11:50:29.590Z,62.92
2019-05-11T11:53:01.279Z,63.73
2019-05-11T11:55:33.314Z,64.12
2019-05-11T11:58:05.370Z,64.93
2019-05-11T12:00:39.341Z,66.07
2019-05-11T12:03:12.940Z,67.12
2019-05-11T12:05:47.648Z,67.73
2019-05-11T12:08:19.250Z,68.19
2019-05-11T12:10:51.010Z,68.35
2019-05-11T12:13:22.789Z,68.14
2019-05-11T12:15:54.643Z,67.81
2019-05-11T12:18:28.652Z,67.36
2019-05-11T12:21:00.908Z,67.36
2019-05-11T12:23:32.763Z,67.70
2019-05-11T12:26:04.849Z,68.19
2019-05-11T12:28:38.166Z,68.49
2019-05-11T12:31:10.000Z,68.69
2019-05-11T12:33:41.976Z,68.98
2019-05-11T12:36:14.016Z,69.46
2019-05-11T12:38:48.559Z,70.08
2019-05-11T12:41:19.476Z,70.37
2019-05-11T12:43:51.539Z,71.51
2019-05-11T12:46:23.510Z,72.31
2019-05-11T12:48:57.263Z,73.20
2019-05-11T12:51:28.555Z,73.92
2019-05-11T12:54:00.384Z,74.47
2019-05-11T12:56:32.277Z,75.15
2019-05-11T12:59:04.253Z,75.43
2019-05-11T13:01:38.133Z,76.10
2019-05-11T13:04:10.724Z,76.27
2019-05-11T13:06:42.479Z,75.48
2019-05-11T13:09:14.714Z,74.69
2019-05-11T13:11:48.156Z,74.42
2019-05-11T13:14:20.027Z,73.70
2019-05-11T13:16:51.897Z,73.32
2019-05-11T13:19:23.893Z,73.39
2019-05-11T13:21:55.906Z,73.84
2019-05-11T13:24:28.318Z,74.30
2019-05-11T13:27:00.312Z,74.29
2019-05-11T13:29:32.011Z,72.74
2019-05-11T13:32:04.979Z,72.42
2019-05-11T13:34:38.722Z,72.80
2019-05-11T13:37:10.558Z,73.32
2019-05-11T13:39:42.418Z,73.25
2019-05-11T13:42:14.057Z,72.96
2019-05-11T13:44:47.831Z,71.11
2019-05-11T13:47:19.554Z,70.46
2019-05-11T13:49:51.684Z,69.52
2019-05-11T13:52:23.872Z,66.28
2019-05-11T13:54:55.585Z,65.42
2019-05-11T13:57:28.638Z,64.50
2019-05-11T14:00:00.429Z,64.05
2019-05-11T14:02:32.055Z,64.12
2019-05-11T14:05:04.146Z,65.25
2019-05-11T14:07:37.956Z,65.03
2019-05-11T14:10:10.186Z,64.56
2019-05-11T14:12:41.826Z,64.69
2019-05-11T14:15:15.241Z,64.32
2019-05-11T14:17:48.586Z,64.33
2019-05-11T14:20:21.081Z,64.78
2019-05-11T14:22:53.259Z,63.74
2019-05-11T14:25:25.028Z,61.00
2019-05-11T14:27:59.401Z,60.25
2019-05-11T14:30:30.461Z,60.12
2019-05-11T14:33:02.523Z,59.24
2019-05-11T14:35:34.723Z,57.20
2019-05-11T14:38:08.042Z,58.30
2019-05-11T14:40:39.783Z,58.94
2019-05-11T14:43:11.299Z,60.91
2019-05-11T14:45:43.145Z,61.86
2019-05-11T14:48:24.038Z,63.46
2019-05-11T14:50:48.976Z,63.93
2019-05-11T14:53:20.749Z,65.07
2019-05-11T14:55:52.340Z,65.57
2019-05-11T14:58:23.894Z,65.96
2019-05-11T15:00:55.460Z,64.95
2019-05-11T15:03:28.734Z,66.30
2019-05-11T15:06:00.515Z,67.17
2019-05-11T15:08:33.586Z,67.94
2019-05-11T15:11:08.271Z,67.18
2019-05-11T15:13:40.814Z,67.82
2019-05-11T15:16:12.672Z,68.63
2019-05-11T15:18:44.432Z,69.83
2019-05-11T15:21:18.654Z,70.15
2019-05-11T15:23:49.688Z,70.19
2019-05-11T15:26:21.454Z,70.52
2019-05-11T15:28:53.202Z,71.08
2019-05-11T15:31:27.715Z,71.09
2019-05-11T15:33:58.866Z,71.38
2019-05-11T15:36:30.936Z,71.71
2019-05-11T15:39:03.110Z,72.53
2019-05-11T15:41:35.145Z,73.21
2019-05-11T15:44:11.324Z,73.91
2019-05-11T15:46:40.990Z,74.68
2019-05-11T15:49:12.571Z,75.10
2019-05-11T15:51:44.137Z,75.68
2019-05-11T15:54:18.484Z,76.10
2019-05-11T15:56:50.528Z,76.72
2019-05-11T15:59:22.576Z,77.46
2019-05-11T16:01:54.825Z,78.00
2019-05-11T16:04:28.084Z,78.76
2019-05-11T16:07:00.834Z,79.02
2019-05-11T16:09:32.775Z,79.52
2019-05-11T16:12:04.756Z,80.08
2019-05-11T16:14:39.817Z,80.55
2019-05-11T16:17:15.647Z,80.88
2019-05-11T16:19:49.071Z,81.43
2019-05-11T16:22:21.622Z,81.91
2019-05-11T16:24:53.712Z,82.26
2019-05-11T16:27:28.354Z,82.46
2019-05-11T16:29:59.761Z,82.86
2019-05-11T16:32:31.520Z,83.17
2019-05-11T16:35:03.490Z,83.54
2019-05-11T16:37:37.839Z,83.75
2019-05-11T16:40:09.725Z,84.06
2019-05-11T16:42:41.296Z,84.21
2019-05-11T16:45:13.352Z,84.45
2019-05-11T16:47:45.018Z,84.70
2019-05-11T16:50:18.184Z,84.83
2019-05-11T16:52:50.194Z,84.92
2019-05-11T16:55:26.147Z,85.19
2019-05-11T16:57:58.771Z,85.46
2019-05-11T17:00:30.992Z,85.64
2019-05-11T17:03:03.197Z,85.68
2019-05-11T17:05:38.066Z,85.67
2019-05-11T17:08:10.271Z,85.74
2019-05-11T17:10:44.283Z,85.76
2019-05-11T17:13:18.079Z,85.92
2019-05-11T17:15:49.843Z,86.22
2019-05-11T17:18:22.505Z,86.58
2019-05-11T17:20:55.053Z,86.63
2019-05-11T17:23:30.884Z,86.78
2019-05-11T17:26:03.510Z,86.85
2019-05-11T17:28:35.391Z,87.00
2019-05-11T17:31:08.058Z,87.12
2019-05-11T17:33:40.244Z,87.31
2019-05-11T17:36:12.173Z,87.54
2019-05-11T17:38:47.906Z,87.74
2019-05-11T17:41:19.850Z,87.94
2019-05-11T17:43:51.884Z,88.07
2019-05-11T17:46:23.734Z,88.24
2019-05-11T17:48:55.804Z,88.41
2019-05-11T17:51:28.706Z,88.64
2019-05-11T17:54:00.553Z,88.83
2019-05-11T17:56:32.611Z,88.94
2019-05-11T17:59:04.455Z,89.13
2019-05-11T18:01:41.592Z,89.37
2019-05-11T18:04:14.434Z,89.70
2019-05-11T18:06:48.171Z,89.83
2019-05-11T18:09:21.441Z,89.80
2019-05-11T18:11:53.404Z,89.77
2019-05-11T18:14:28.013Z,89.78
2019-05-11T18:16:59.289Z,89.90
2019-05-11T18:19:31.492Z,89.99
2019-05-11T18:22:03.607Z,90.05
2019-05-11T18:24:38.265Z,90.30
2019-05-11T18:27:11.097Z,90.40
2019-05-11T18:29:44.432Z,90.57
2019-05-11T18:32:16.955Z,90.77
2019-05-11T18:34:49.416Z,90.99
2019-05-11T18:37:22.602Z,91.00
2019-05-11T18:39:54.418Z,91.01
2019-05-11T18:42:26.287Z,91.04
2019-05-11T18:45:00.259Z,91.02
2019-05-11T18:47:31.842Z,91.06
2019-05-11T18:50:04.099Z,91.13
2019-05-11T18:52:36.578Z,91.26
2019-05-11T18:55:09.267Z,91.37
2019-05-11T18:57:41.231Z,91.45
2019-05-11T19:00:13.221Z,91.53
2019-05-11T19:02:49.546Z,91.62
2019-05-11T19:05:20.988Z,91.63
2019-05-11T19:07:52.848Z,91.58
2019-05-11T19:10:25.022Z,91.62
2019-05-11T19:12:58.945Z,91.74
2019-05-11T19:15:31.028Z,91.94
2019-05-11T19:18:03.119Z,92.11
2019-05-11T19:20:45.255Z,92.29
2019-05-11T19:23:09.427Z,92.40
2019-05-11T19:25:42.030Z,92.51
2019-05-11T19:28:14.193Z,92.64
2019-05-11T19:30:48.643Z,92.80
2019-05-11T19:33:19.807Z,92.97
2019-05-11T19:35:52.003Z,93.14
2019-05-11T19:38:23.965Z,93.29
2019-05-11T19:40:55.609Z,93.41
2019-05-11T19:43:27.747Z,93.55
2019-05-11T19:45:59.625Z,93.65
2019-05-11T19:48:31.690Z,93.82
2019-05-11T19:51:08.120Z,93.97
2019-05-11T19:53:38.616Z,94.12
2019-05-11T19:56:10.296Z,94.22
2019-05-11T19:58:42.260Z,94.31
2019-05-11T20:01:14.344Z,94.47
2019-05-11T20:03:47.422Z,94.62
2019-05-11T20:06:19.374Z,94.73
2019-05-11T20:08:51.123Z,94.73
2019-05-11T20:11:24.002Z,94.64
2019-05-11T20:13:55.763Z,94.59
2019-05-11T20:16:27.626Z,94.51
2019-05-11T20:18:59.799Z,94.47
2019-05-11T20:21:31.856Z,94.40
2019-05-11T20:24:05.164Z,94.27
2019-05-11T20:26:37.837Z,94.27
2019-05-11T20:29:09.902Z,94.18
2019-05-11T20:31:41.560Z,94.14
2019-05-11T20:34:13.325Z,93.98
2019-05-11T20:36:47.965Z,93.88
2019-05-11T20:39:19.173Z,93.81
2019-05-11T20:41:51.149Z,93.79
2019-05-11T20:44:22.941Z,93.93
2019-05-11T20:46:54.860Z,94.07
2019-05-11T20:49:28.284Z,94.21
2019-05-11T20:52:00.136Z,94.28
2019-05-11T20:54:31.870Z,94.37
2019-05-11T20:57:03.755Z,94.37
2019-05-11T20:59:38.070Z,94.34
2019-05-11T21:02:09.407Z,94.25
2019-05-11T21:04:42.296Z,94.15
2019-05-11T21:07:14.307Z,94.06
2019-05-11T21:09:48.249Z,93.92
2019-05-11T21:12:21.004Z,93.79
2019-05-11T21:14:52.899Z,93.73
2019-05-11T21:17:24.445Z,93.65
2019-05-11T21:19:56.603Z,93.60
2019-05-11T21:22:29.382Z,93.51
2019-05-11T21:25:01.790Z,93.46
2019-05-11T21:27:34.675Z,93.38
2019-05-11T21:30:10.627Z,93.34
2019-05-11T21:32:42.382Z,93.46
2019-05-11T21:35:14.751Z,93.66
2019-05-11T21:37:48.761Z,94.02
2019-05-11T21:40:20.612Z,94.38
2019-05-11T21:42:52.797Z,94.75
2019-05-11T21:45:24.748Z,94.93
2019-05-11T21:47:58.056Z,94.99
2019-05-11T21:50:30.895Z,95.03
2019-05-11T21:53:02.709Z,95.06
2019-05-11T21:55:34.862Z,95.05
2019-05-11T21:58:09.007Z,95.10
2019-05-11T22:00:40.630Z,95.11
2019-05-11T22:03:12.594Z,95.06
2019-05-11T22:05:44.349Z,95.02
2019-05-11T22:08:17.868Z,95.06
2019-05-11T22:10:49.924Z,95.12
2019-05-11T22:13:21.759Z,95.20
2019-05-11T22:15:53.893Z,95.32
2019-05-11T22:18:30.969Z,95.43
2019-05-11T22:20:58.879Z,95.51
2019-05-11T22:23:30.696Z,95.62
2019-05-11T22:26:02.397Z,95.81
2019-05-11T22:28:34.074Z,95.97
2019-05-11T22:31:07.806Z,96.17
2019-05-11T22:33:39.938Z,96.36
2019-05-11T22:36:11.576Z,96.56
2019-05-11T22:38:43.757Z,96.76
2019-05-11T22:41:17.968Z,96.95
2019-05-11T22:43:49.201Z,97.18
2019-05-11T22:46:21.499Z,97.35
2019-05-11T22:48:53.270Z,97.39
2019-05-11T22:51:25.441Z,97.44
2019-05-11T22:53:59.140Z,97.48
2019-05-11T22:56:31.394Z,97.47
2019-05-11T22:59:02.943Z,97.45
2019-05-11T23:01:34.807Z,97.42
2019-05-11T23:04:06.607Z,97.39
2019-05-11T23:06:40.455Z,97.36
2019-05-11T23:09:12.134Z,97.38
2019-05-11T23:11:43.877Z,97.38
2019-05-11T23:14:17.718Z,97.38
2019-05-11T23:16:49.976Z,97.40
2019-05-11T23:19:21.818Z,97.43
2019-05-11T23:21:54.159Z,97.44
2019-05-11T23:24:28.572Z,97.50
2019-05-11T23:27:00.263Z,97.51
2019-05-11T23:29:32.131Z,97.45
2019-05-11T23:32:04.489Z,97.41
2019-05-11T23:34:38.589Z,97.42
2019-05-11T23:37:09.639Z,97.40
2019-05-11T23:39:41.553Z,97.36
2019-05-11T23:42:13.599Z,97.33
2019-05-11T23:44:47.922Z,97.35
2019-05-11T23:47:20.361Z,97.32
2019-05-11T23:49:53.061Z,97.31
2019-05-11T23:52:24.805Z,97.35
2019-05-11T23:54:58.833Z,97.33
2019-05-11T23:57:33.062Z,97.32
